sensor_id;sensor_type;location;lat;lon;timestamp;pressure;altitude;pressure_sealevel;temperature;humidity
5996;BME280;3026;53.612;7.278;2023-05-09T00:01:29;101706.47;;;16.68;100.00
5996;BME280;3026;53.612;7.278;2023-05-09T00:03:56;101713.16;;;16.66;100.00
5996;BME280;3026;53.612;7.278;2023-05-09T00:06:24;101719.91;;;16.63;100.00
5996;BME280;3026;53.612;7.278;2023-05-09T00:08:52;101726.44;;;16.62;100.00
5996;BME280;3026;53.612;7.278;2023-05-09T00:11:19;101723.03;;;16.60;100.00
5996;BME280;3026;53.612;7.278;2023-05-09T00:13:47;101724.94;;;16.59;100.00
5996;BME280;3026;53.612;7.278;2023-05-09T00:16:15;101714.78;;;16.60;100.00
5996;BME280;3026;53.612;7.278;2023-05-09T00:18:43;101723.25;;;16.58;100.00
5996;BME280;3026;53.612;7.278;2023-05-09T00:21:09;101712.41;;;16.57;100.00
5996;BME280;3026;53.612;7.278;2023-05-09T00:23:36;101717.22;;;16.55;100.00
5996;BME280;3026;53.612;7.278;2023-05-09T00:26:03;101718.09;;;16.55;100.00
5996;BME280;3026;53.612;7.278;2023-05-09T00:28:30;101712.13;;;16.52;100.00
5996;BME280;3026;53.612;7.278;2023-05-09T00:30:59;101706.59;;;16.52;100.00
5996;BME280;3026;53.612;7.278;2023-05-09T00:33:26;101702.34;;;16.49;100.00
5996;BME280;3026;53.612;7.278;2023-05-09T00:35:52;101701.50;;;16.49;100.00
5996;BME280;3026;53.612;7.278;2023-05-09T00:38:19;101688.78;;;16.48;100.00
5996;BME280;3026;53.612;7.278;2023-05-09T00:40:46;101689.16;;;16.45;100.00
5996;BME280;3026;53.612;7.278;2023-05-09T00:43:13;101680.59;;;16.40;100.00
5996;BME280;3026;53.612;7.278;2023-05-09T00:45:41;101690.69;;;16.32;100.00
5996;BME280;3026;53.612;7.278;2023-05-09T00:48:09;101679.19;;;16.29;100.00
5996;BME280;3026;53.612;7.278;2023-05-09T00:50:36;101670.47;;;16.25;100.00
5996;BME280;3026;53.612;7.278;2023-05-09T00:53:03;101668.94;;;16.23;100.00
5996;BME280;3026;53.612;7.278;2023-05-09T00:55:30;101668.47;;;16.19;100.00
5996;BME280;3026;53.612;7.278;2023-05-09T00:57:57;101665.03;;;16.17;100.00
5996;BME280;3026;53.612;7.278;2023-05-09T01:00:24;101663.72;;;16.13;100.00
5996;BME280;3026;53.612;7.278;2023-05-09T01:02:53;101657.75;;;16.10;100.00
5996;BME280;3026;53.612;7.278;2023-05-09T01:05:24;101656.22;;;16.07;100.00
5996;BME280;3026;53.612;7.278;2023-05-09T01:07:59;101643.22;;;16.01;100.00
5996;BME280;3026;53.612;7.278;2023-05-09T01:10:34;101640.19;;;15.96;100.00
5996;BME280;3026;53.612;7.278;2023-05-09T01:13:08;101635.44;;;15.90;100.00
5996;BME280;3026;53.612;7.278;2023-05-09T01:15:43;101630.34;;;15.87;100.00
5996;BME280;3026;53.612;7.278;2023-05-09T01:18:18;101627.28;;;15.82;100.00
5996;BME280;3026;53.612;7.278;2023-05-09T01:20:52;101635.91;;;15.79;100.00
5996;BME280;3026;53.612;7.278;2023-05-09T01:23:39;101635.78;;;15.72;100.00
5996;BME280;3026;53.612;7.278;2023-05-09T01:26:18;101631.91;;;15.66;100.00
5996;BME280;3026;53.612;7.278;2023-05-09T01:31:52;101622.66;;;15.59;100.00
5996;BME280;3026;53.612;7.278;2023-05-09T01:34:23;101620.28;;;15.56;100.00
5996;BME280;3026;53.612;7.278;2023-05-09T01:36:55;101604.84;;;15.55;100.00
5996;BME280;3026;53.612;7.278;2023-05-09T01:39:25;101598.69;;;15.53;100.00
5996;BME280;3026;53.612;7.278;2023-05-09T01:41:54;101595.94;;;15.53;100.00
5996;BME280;3026;53.612;7.278;2023-05-09T01:44:22;101600.72;;;15.51;100.00
5996;BME280;3026;53.612;7.278;2023-05-09T01:46:52;101592.88;;;15.48;100.00
5996;BME280;3026;53.612;7.278;2023-05-09T01:49:21;101599.59;;;15.45;100.00
5996;BME280;3026;53.612;7.278;2023-05-09T01:51:49;101591.53;;;15.44;100.00
5996;BME280;3026;53.612;7.278;2023-05-09T01:54:18;101595.34;;;15.43;100.00
5996;BME280;3026;53.612;7.278;2023-05-09T01:56:46;101593.63;;;15.42;100.00
5996;BME280;3026;53.612;7.278;2023-05-09T01:59:14;101588.13;;;15.42;100.00
5996;BME280;3026;53.612;7.278;2023-05-09T02:01:42;101595.72;;;15.40;100.00
5996;BME280;3026;53.612;7.278;2023-05-09T02:04:10;101581.28;;;15.38;100.00
5996;BME280;3026;53.612;7.278;2023-05-09T02:06:39;101585.44;;;15.34;100.00
5996;BME280;3026;53.612;7.278;2023-05-09T02:09:06;101589.63;;;15.30;100.00
5996;BME280;3026;53.612;7.278;2023-05-09T02:11:33;101584.47;;;15.27;100.00
5996;BME280;3026;53.612;7.278;2023-05-09T02:14:00;101581.25;;;15.23;100.00
5996;BME280;3026;53.612;7.278;2023-05-09T02:16:27;101571.03;;;15.17;100.00
5996;BME280;3026;53.612;7.278;2023-05-09T02:18:54;101569.47;;;15.14;100.00
5996;BME280;3026;53.612;7.278;2023-05-09T02:21:22;101564.34;;;15.11;100.00
5996;BME280;3026;53.612;7.278;2023-05-09T02:23:49;101565.78;;;15.07;100.00
5996;BME280;3026;53.612;7.278;2023-05-09T02:26:16;101570.75;;;15.04;100.00
5996;BME280;3026;53.612;7.278;2023-05-09T02:28:44;101569.44;;;15.00;100.00
5996;BME280;3026;53.612;7.278;2023-05-09T02:31:12;101575.13;;;14.98;100.00
5996;BME280;3026;53.612;7.278;2023-05-09T02:33:40;101579.28;;;14.94;100.00
5996;BME280;3026;53.612;7.278;2023-05-09T02:36:08;101568.63;;;14.91;100.00
5996;BME280;3026;53.612;7.278;2023-05-09T02:38:37;101568.63;;;14.91;100.00
5996;BME280;3026;53.612;7.278;2023-05-09T02:41:04;101569.00;;;14.88;100.00
5996;BME280;3026;53.612;7.278;2023-05-09T02:43:31;101565.59;;;14.86;100.00
5996;BME280;3026;53.612;7.278;2023-05-09T02:45:58;101569.75;;;14.82;100.00
5996;BME280;3026;53.612;7.278;2023-05-09T02:48:25;101575.25;;;14.82;100.00
5996;BME280;3026;53.612;7.278;2023-05-09T02:50:52;101579.00;;;14.81;100.00
5996;BME280;3026;53.612;7.278;2023-05-09T02:53:18;101575.59;;;14.79;100.00
5996;BME280;3026;53.612;7.278;2023-05-09T02:55:46;101568.41;;;14.78;100.00
5996;BME280;3026;53.612;7.278;2023-05-09T02:58:13;101566.69;;;14.77;100.00
5996;BME280;3026;53.612;7.278;2023-05-09T03:00:40;101564.97;;;14.76;100.00
5996;BME280;3026;53.612;7.278;2023-05-09T03:03:07;101557.78;;;14.75;100.00
5996;BME280;3026;53.612;7.278;2023-05-09T03:05:34;101557.13;;;14.73;100.00
5996;BME280;3026;53.612;7.278;2023-05-09T03:08:01;101549.06;;;14.71;100.00
5996;BME280;3026;53.612;7.278;2023-05-09T03:10:28;101552.84;;;14.70;100.00
5996;BME280;3026;53.612;7.278;2023-05-09T03:12:56;101544.97;;;14.67;100.00
5996;BME280;3026;53.612;7.278;2023-05-09T03:15:22;101547.91;;;14.66;100.00
5996;BME280;3026;53.612;7.278;2023-05-09T03:17:49;101548.09;;;14.64;100.00
5996;BME280;3026;53.612;7.278;2023-05-09T03:20:16;101539.00;;;14.64;100.00
5996;BME280;3026;53.612;7.278;2023-05-09T03:22:43;101536.25;;;14.64;100.00
5996;BME280;3026;53.612;7.278;2023-05-09T03:25:10;101529.06;;;14.63;100.00
5996;BME280;3026;53.612;7.278;2023-05-09T03:27:36;101528.38;;;14.61;100.00
5996;BME280;3026;53.612;7.278;2023-05-09T03:30:06;101524.94;;;14.58;100.00
5996;BME280;3026;53.612;7.278;2023-05-09T03:32:33;101516.03;;;14.56;100.00
5996;BME280;3026;53.612;7.278;2023-05-09T03:34:59;101526.53;;;14.53;100.00
5996;BME280;3026;53.612;7.278;2023-05-09T03:37:26;101517.81;;;14.49;100.00
5996;BME280;3026;53.612;7.278;2023-05-09T03:39:53;101502.75;;;14.45;100.00
5996;BME280;3026;53.612;7.278;2023-05-09T03:42:20;101509.28;;;14.44;100.00
5996;BME280;3026;53.612;7.278;2023-05-09T03:44:47;101515.75;;;14.43;100.00
5996;BME280;3026;53.612;7.278;2023-05-09T03:47:15;101517.84;;;14.41;100.00
5996;BME280;3026;53.612;7.278;2023-05-09T03:49:42;101515.09;;;14.41;100.00
5996;BME280;3026;53.612;7.278;2023-05-09T03:52:09;101506.38;;;14.38;100.00
5996;BME280;3026;53.612;7.278;2023-05-09T03:54:36;101518.69;;;14.42;100.00
5996;BME280;3026;53.612;7.278;2023-05-09T03:57:02;101510.66;;;14.40;100.00
5996;BME280;3026;53.612;7.278;2023-05-09T03:59:29;101508.94;;;14.39;100.00
5996;BME280;3026;53.612;7.278;2023-05-09T04:01:56;101512.72;;;14.38;100.00
5996;BME280;3026;53.612;7.278;2023-05-09T04:04:25;101508.09;;;14.39;100.00
5996;BME280;3026;53.612;7.278;2023-05-09T04:06:51;101514.81;;;14.36;100.00
5996;BME280;3026;53.612;7.278;2023-05-09T04:09:18;101510.31;;;14.35;100.00
5996;BME280;3026;53.612;7.278;2023-05-09T04:11:45;101514.81;;;14.36;100.00
5996;BME280;3026;53.612;7.278;2023-05-09T04:14:12;101497.81;;;14.32;100.00
5996;BME280;3026;53.612;7.278;2023-05-09T04:16:38;101496.59;;;14.35;100.00
5996;BME280;3026;53.612;7.278;2023-05-09T04:19:05;101493.69;;;14.37;100.00
5996;BME280;3026;53.612;7.278;2023-05-09T04:21:33;101501.22;;;14.35;100.00
5996;BME280;3026;53.612;7.278;2023-05-09T04:24:00;101496.78;;;14.34;100.00
5996;BME280;3026;53.612;7.278;2023-05-09T04:26:27;101494.91;;;14.34;100.00
5996;BME280;3026;53.612;7.278;2023-05-09T04:28:55;101494.22;;;14.32;100.00
5996;BME280;3026;53.612;7.278;2023-05-09T04:31:22;101495.28;;;14.31;100.00
5996;BME280;3026;53.612;7.278;2023-05-09T04:33:50;101495.28;;;14.31;100.00
5996;BME280;3026;53.612;7.278;2023-05-09T04:36:17;101495.28;;;14.31;100.00
5996;BME280;3026;53.612;7.278;2023-05-09T04:38:45;101495.28;;;14.31;100.00
5996;BME280;3026;53.612;7.278;2023-05-09T04:41:12;101493.56;;;14.30;100.00
5996;BME280;3026;53.612;7.278;2023-05-09T04:43:38;101493.56;;;14.30;100.00
5996;BME280;3026;53.612;7.278;2023-05-09T04:46:05;101492.72;;;14.29;100.00
5996;BME280;3026;53.612;7.278;2023-05-09T04:48:33;101485.34;;;14.30;100.00
5996;BME280;3026;53.612;7.278;2023-05-09T04:51:00;101486.38;;;14.29;100.00
5996;BME280;3026;53.612;7.278;2023-05-09T04:53:27;101479.84;;;14.30;100.00
5996;BME280;3026;53.612;7.278;2023-05-09T04:55:55;101481.75;;;14.29;100.00
5996;BME280;3026;53.612;7.278;2023-05-09T04:58:22;101482.59;;;14.30;100.00
5996;BME280;3026;53.612;7.278;2023-05-09T05:00:50;101484.28;;;14.31;100.00
5996;BME280;3026;53.612;7.278;2023-05-09T05:03:17;101475.03;;;14.32;100.00
5996;BME280;3026;53.612;7.278;2023-05-09T05:05:44;101475.88;;;14.32;100.00
5996;BME280;3026;53.612;7.278;2023-05-09T05:08:10;101461.97;;;14.34;100.00
5996;BME280;3026;53.612;7.278;2023-05-09T05:10:37;101458.19;;;14.35;100.00
5996;BME280;3026;53.612;7.278;2023-05-09T05:13:05;101467.13;;;14.37;100.00
5996;BME280;3026;53.612;7.278;2023-05-09T05:15:32;101463.34;;;14.38;100.00
5996;BME280;3026;53.612;7.278;2023-05-09T05:17:59;101461.25;;;14.40;100.00
5996;BME280;3026;53.612;7.278;2023-05-09T05:20:26;101462.78;;;14.43;100.00
5996;BME280;3026;53.612;7.278;2023-05-09T05:22:53;101455.41;;;14.43;100.00
5996;BME280;3026;53.612;7.278;2023-05-09T05:25:20;101455.41;;;14.43;100.00
5996;BME280;3026;53.612;7.278;2023-05-09T05:27:47;101451.66;;;14.44;100.00
5996;BME280;3026;53.612;7.278;2023-05-09T05:30:15;101451.31;;;14.47;100.00
5996;BME280;3026;53.612;7.278;2023-05-09T05:32:42;101439.28;;;14.48;100.00
5996;BME280;3026;53.612;7.278;2023-05-09T05:35:09;101438.59;;;14.46;100.00
5996;BME280;3026;53.612;7.278;2023-05-09T05:37:36;101436.53;;;14.48;100.00
5996;BME280;3026;53.612;7.278;2023-05-09T05:40:05;101444.78;;;14.48;100.00
5996;BME280;3026;53.612;7.278;2023-05-09T05:42:32;101440.34;;;14.47;100.00
5996;BME280;3026;53.612;7.278;2023-05-09T05:44:59;101440.34;;;14.47;100.00
5996;BME280;3026;53.612;7.278;2023-05-09T05:47:30;101441.34;;;14.46;100.00
5996;BME280;3026;53.612;7.278;2023-05-09T05:49:57;101431.06;;;14.48;100.00
5996;BME280;3026;53.612;7.278;2023-05-09T05:52:24;101434.47;;;14.50;100.00
5996;BME280;3026;53.612;7.278;2023-05-09T05:54:51;101436.16;;;14.51;100.00
5996;BME280;3026;53.612;7.278;2023-05-09T05:57:18;101436.16;;;14.51;100.00
5996;BME280;3026;53.612;7.278;2023-05-09T05:59:46;101427.75;;;14.53;100.00
5996;BME280;3026;53.612;7.278;2023-05-09T06:02:13;101424.81;;;14.54;100.00
5996;BME280;3026;53.612;7.278;2023-05-09T06:04:41;101428.22;;;14.56;100.00
5996;BME280;3026;53.612;7.278;2023-05-09T06:07:09;101435.41;;;14.57;100.00
5996;BME280;3026;53.612;7.278;2023-05-09T06:09:36;101421.03;;;14.55;100.00
5996;BME280;3026;53.612;7.278;2023-05-09T06:12:03;101422.00;;;14.63;100.00
5996;BME280;3026;53.612;7.278;2023-05-09T06:14:30;101414.06;;;14.68;100.00
5996;BME280;3026;53.612;7.278;2023-05-09T06:16:57;101421.75;;;14.72;100.00
5996;BME280;3026;53.612;7.278;2023-05-09T06:19:24;101417.41;;;14.78;100.00
5996;BME280;3026;53.612;7.278;2023-05-09T06:21:52;101412.22;;;14.83;100.00
5996;BME280;3026;53.612;7.278;2023-05-09T06:24:19;101409.75;;;14.88;100.00
5996;BME280;3026;53.612;7.278;2023-05-09T06:26:46;101404.53;;;14.93;100.00
5996;BME280;3026;53.612;7.278;2023-05-09T06:29:13;101406.56;;;14.99;100.00
5996;BME280;3026;53.612;7.278;2023-05-09T06:31:39;101400.69;;;15.02;100.00
5996;BME280;3026;53.612;7.278;2023-05-09T06:34:06;101397.38;;;15.07;100.00
5996;BME280;3026;53.612;7.278;2023-05-09T06:36:34;101394.72;;;15.13;100.00
5996;BME280;3026;53.612;7.278;2023-05-09T06:39:02;101391.22;;;15.20;100.00
5996;BME280;3026;53.612;7.278;2023-05-09T06:41:29;101379.47;;;15.26;100.00
5996;BME280;3026;53.612;7.278;2023-05-09T06:43:55;101378.72;;;15.32;100.00
5996;BME280;3026;53.612;7.278;2023-05-09T06:46:22;101372.44;;;15.38;100.00
5996;BME280;3026;53.612;7.278;2023-05-09T06:48:49;101378.50;;;15.48;100.00
5996;BME280;3026;53.612;7.278;2023-05-09T06:51:16;101371.84;;;15.57;100.00
5996;BME280;3026;53.612;7.278;2023-05-09T06:53:42;101373.28;;;15.68;100.00
5996;BME280;3026;53.612;7.278;2023-05-09T06:56:11;101363.69;;;15.79;100.00
5996;BME280;3026;53.612;7.278;2023-05-09T06:58:38;101363.44;;;15.95;100.00
5996;BME280;3026;53.612;7.278;2023-05-09T07:01:05;101361.22;;;16.05;100.00
5996;BME280;3026;53.612;7.278;2023-05-09T07:03:32;101350.50;;;16.10;100.00
5996;BME280;3026;53.612;7.278;2023-05-09T07:05:58;101347.34;;;16.13;100.00
5996;BME280;3026;53.612;7.278;2023-05-09T07:08:25;101338.69;;;16.16;100.00
5996;BME280;3026;53.612;7.278;2023-05-09T07:10:52;101334.47;;;16.20;100.00
5996;BME280;3026;53.612;7.278;2023-05-09T07:13:20;101334.09;;;16.23;100.00
5996;BME280;3026;53.612;7.278;2023-05-09T07:15:47;101336.44;;;16.26;100.00
5996;BME280;3026;53.612;7.278;2023-05-09T07:18:14;101331.59;;;16.28;100.00
5996;BME280;3026;53.612;7.278;2023-05-09T07:20:40;101332.91;;;16.32;100.00
5996;BME280;3026;53.612;7.278;2023-05-09T07:23:07;101332.03;;;16.32;100.00
5996;BME280;3026;53.612;7.278;2023-05-09T07:25:34;101329.50;;;16.30;100.00
5996;BME280;3026;53.612;7.278;2023-05-09T07:28:01;101325.69;;;16.31;100.00
5996;BME280;3026;53.612;7.278;2023-05-09T07:30:29;101327.78;;;16.29;100.00
5996;BME280;3026;53.612;7.278;2023-05-09T07:32:56;101323.13;;;16.30;100.00
5996;BME280;3026;53.612;7.278;2023-05-09T07:35:25;101313.81;;;16.31;100.00
5996;BME280;3026;53.612;7.278;2023-05-09T07:37:52;101318.88;;;16.27;100.00
5996;BME280;3026;53.612;7.278;2023-05-09T07:40:19;101309.59;;;16.28;100.00
5996;BME280;3026;53.612;7.278;2023-05-09T07:42:45;101313.38;;;16.27;100.00
5996;BME280;3026;53.612;7.278;2023-05-09T07:45:14;101317.19;;;16.26;100.00
5996;BME280;3026;53.612;7.278;2023-05-09T07:47:42;101316.34;;;16.26;100.00
5996;BME280;3026;53.612;7.278;2023-05-09T07:50:09;101309.53;;;16.22;100.00
5996;BME280;3026;53.612;7.278;2023-05-09T07:52:36;101304.47;;;16.25;100.00
5996;BME280;3026;53.612;7.278;2023-05-09T07:55:03;101298.56;;;16.28;100.00
5996;BME280;3026;53.612;7.278;2023-05-09T07:57:31;101300.28;;;16.29;100.00
5996;BME280;3026;53.612;7.278;2023-05-09T07:59:57;101292.28;;;16.34;100.00
5996;BME280;3026;53.612;7.278;2023-05-09T08:02:24;101281.72;;;16.38;100.00
5996;BME280;3026;53.612;7.278;2023-05-09T08:04:52;101282.16;;;16.42;100.00
5996;BME280;3026;53.612;7.278;2023-05-09T08:07:19;101279.25;;;16.50;100.00
5996;BME280;3026;53.612;7.278;2023-05-09T08:09:46;101273.81;;;16.56;100.00
5996;BME280;3026;53.612;7.278;2023-05-09T08:12:13;101267.28;;;16.64;100.00
5996;BME280;3026;53.612;7.278;2023-05-09T08:14:40;101274.38;;;16.73;100.00
5996;BME280;3026;53.612;7.278;2023-05-09T08:17:06;101275.72;;;16.84;100.00
5996;BME280;3026;53.612;7.278;2023-05-09T08:19:33;101284.66;;;16.92;100.00
5996;BME280;3026;53.612;7.278;2023-05-09T08:22:01;101277.47;;;16.98;100.00
5996;BME280;3026;53.612;7.278;2023-05-09T08:24:28;101265.19;;;17.01;100.00
5996;BME280;3026;53.612;7.278;2023-05-09T08:26:56;101267.78;;;17.09;100.00
5996;BME280;3026;53.612;7.278;2023-05-09T08:29:22;101266.13;;;17.14;100.00
5996;BME280;3026;53.612;7.278;2023-05-09T08:31:49;101255.97;;;17.21;100.00
5996;BME280;3026;53.612;7.278;2023-05-09T08:34:16;101254.09;;;17.29;100.00
5996;BME280;3026;53.612;7.278;2023-05-09T08:36:43;101249.63;;;17.34;100.00
5996;BME280;3026;53.612;7.278;2023-05-09T08:39:12;101246.69;;;17.42;100.00
5996;BME280;3026;53.612;7.278;2023-05-09T08:41:39;101242.06;;;17.49;100.00
5996;BME280;3026;53.612;7.278;2023-05-09T08:44:07;101246.31;;;17.59;100.00
5996;BME280;3026;53.612;7.278;2023-05-09T08:46:37;101244.44;;;17.66;100.00
5996;BME280;3026;53.612;7.278;2023-05-09T08:49:05;101240.03;;;17.78;100.00
5996;BME280;3026;53.612;7.278;2023-05-09T08:51:33;101233.69;;;17.84;100.00
5996;BME280;3026;53.612;7.278;2023-05-09T08:54:00;101239.19;;;17.97;100.00
5996;BME280;3026;53.612;7.278;2023-05-09T08:56:29;101233.25;;;18.14;100.00
5996;BME280;3026;53.612;7.278;2023-05-09T08:58:57;101231.53;;;18.26;100.00
5996;BME280;3026;53.612;7.278;2023-05-09T09:01:24;101230.22;;;18.48;100.00
5996;BME280;3026;53.612;7.278;2023-05-09T09:03:52;101225.09;;;18.72;100.00
5996;BME280;3026;53.612;7.278;2023-05-09T09:06:20;101226.75;;;18.92;100.00
5996;BME280;3026;53.612;7.278;2023-05-09T09:08:47;101224.97;;;19.11;100.00
5996;BME280;3026;53.612;7.278;2023-05-09T09:11:15;101224.94;;;19.18;100.00
5996;BME280;3026;53.612;7.278;2023-05-09T09:13:44;101213.03;;;19.17;100.00
5996;BME280;3026;53.612;7.278;2023-05-09T09:16:17;101217.53;;;19.12;100.00
5996;BME280;3026;53.612;7.278;2023-05-09T09:18:45;101226.25;;;19.09;100.00
5996;BME280;3026;53.612;7.278;2023-05-09T09:21:14;101214.16;;;19.03;100.00
5996;BME280;3026;53.612;7.278;2023-05-09T09:23:42;101223.31;;;18.97;100.00
5996;BME280;3026;53.612;7.278;2023-05-09T09:26:09;101216.34;;;18.88;100.00
5996;BME280;3026;53.612;7.278;2023-05-09T09:28:36;101218.91;;;18.83;100.00
5996;BME280;3026;53.612;7.278;2023-05-09T09:34:00;101224.03;;;18.73;100.00
5996;BME280;3026;53.612;7.278;2023-05-09T09:36:27;101216.00;;;18.64;100.00
5996;BME280;3026;53.612;7.278;2023-05-09T09:38:58;101212.16;;;18.59;100.00
5996;BME280;3026;53.612;7.278;2023-05-09T09:41:30;101202.84;;;18.53;100.00
5996;BME280;3026;53.612;7.278;2023-05-09T09:43:57;101198.56;;;18.51;100.00
5996;BME280;3026;53.612;7.278;2023-05-09T09:46:24;101194.34;;;18.48;100.00
5996;BME280;3026;53.612;7.278;2023-05-09T09:48:51;101194.97;;;18.50;100.00
5996;BME280;3026;53.612;7.278;2023-05-09T09:51:26;101186.28;;;18.47;100.00
5996;BME280;3026;53.612;7.278;2023-05-09T09:53:53;101186.94;;;18.42;100.00
5996;BME280;3026;53.612;7.278;2023-05-09T09:56:20;101187.34;;;18.39;100.00
5996;BME280;3026;53.612;7.278;2023-05-09T09:58:46;101176.28;;;18.39;100.00
5996;BME280;3026;53.612;7.278;2023-05-09T10:01:13;101178.00;;;18.40;100.00
5996;BME280;3026;53.612;7.278;2023-05-09T10:03:42;101175.22;;;18.40;100.00
5996;BME280;3026;53.612;7.278;2023-05-09T10:06:10;101167.59;;;18.42;100.00
5996;BME280;3026;53.612;7.278;2023-05-09T10:08:39;101179.72;;;18.41;100.00
5996;BME280;3026;53.612;7.278;2023-05-09T10:11:06;101170.16;;;18.44;100.00
5996;BME280;3026;53.612;7.278;2023-05-09T10:13:33;101164.19;;;18.40;100.00
5996;BME280;3026;53.612;7.278;2023-05-09T10:16:02;101172.47;;;18.40;100.00
5996;BME280;3026;53.612;7.278;2023-05-09T10:18:30;101168.66;;;18.41;100.00
5996;BME280;3026;53.612;7.278;2023-05-09T10:20:58;101174.59;;;18.38;100.00
5996;BME280;3026;53.612;7.278;2023-05-09T10:23:28;101174.41;;;18.33;100.00
5996;BME280;3026;53.612;7.278;2023-05-09T10:26:04;101168.25;;;18.31;100.00
5996;BME280;3026;53.612;7.278;2023-05-09T10:28:34;101168.66;;;18.34;100.00
5996;BME280;3026;53.612;7.278;2023-05-09T10:31:15;101158.47;;;18.28;100.00
5996;BME280;3026;53.612;7.278;2023-05-09T10:33:48;101161.06;;;18.23;100.00
5996;BME280;3026;53.612;7.278;2023-05-09T10:36:17;101159.78;;;18.19;100.00
5996;BME280;3026;53.612;7.278;2023-05-09T10:38:45;101161.06;;;18.17;100.00
5996;BME280;3026;53.612;7.278;2023-05-09T10:41:15;101161.50;;;18.14;100.00
5996;BME280;3026;53.612;7.278;2023-05-09T10:43:43;101165.75;;;18.10;100.00
5996;BME280;3026;53.612;7.278;2023-05-09T10:46:11;101162.78;;;18.11;100.00
5996;BME280;3026;53.612;7.278;2023-05-09T10:48:39;101154.28;;;18.13;100.00
5996;BME280;3026;53.612;7.278;2023-05-09T10:51:07;101146.22;;;18.11;100.00
5996;BME280;3026;53.612;7.278;2023-05-09T10:53:41;101134.97;;;18.13;100.00
5996;BME280;3026;53.612;7.278;2023-05-09T10:56:23;101146.63;;;18.15;100.00
5996;BME280;3026;53.612;7.278;2023-05-09T10:58:50;101138.56;;;18.20;100.00
5996;BME280;3026;53.612;7.278;2023-05-09T11:01:27;101137.91;;;18.24;100.00
5996;BME280;3026;53.612;7.278;2023-05-09T11:03:57;101137.69;;;18.26;100.00
5996;BME280;3026;53.612;7.278;2023-05-09T11:06:44;101138.13;;;18.29;100.00
5996;BME280;3026;53.612;7.278;2023-05-09T11:09:32;101127.03;;;18.36;100.00
5996;BME280;3026;53.612;7.278;2023-05-09T11:12:09;101113.84;;;18.45;100.00
5996;BME280;3026;53.612;7.278;2023-05-09T11:14:40;101117.63;;;18.57;100.00
5996;BME280;3026;53.612;7.278;2023-05-09T11:17:09;101121.03;;;18.65;100.00
5996;BME280;3026;53.612;7.278;2023-05-09T11:22:21;101106.09;;;18.73;100.00
5996;BME280;3026;53.612;7.278;2023-05-09T11:24:50;101112.06;;;18.77;100.00
5996;BME280;3026;53.612;7.278;2023-05-09T11:27:20;101106.53;;;18.77;100.00
5996;BME280;3026;53.612;7.278;2023-05-09T11:29:50;101106.53;;;18.77;100.00
5996;BME280;3026;53.612;7.278;2023-05-09T11:32:17;101111.22;;;18.76;100.00
5996;BME280;3026;53.612;7.278;2023-05-09T11:34:45;101104.84;;;18.76;100.00
5996;BME280;3026;53.612;7.278;2023-05-09T11:37:13;101098.03;;;18.78;100.00
5996;BME280;3026;53.612;7.278;2023-05-09T11:39:55;101098.88;;;18.79;100.00
5996;BME280;3026;53.612;7.278;2023-05-09T11:42:24;101100.56;;;18.80;100.00
5996;BME280;3026;53.612;7.278;2023-05-09T11:44:55;101102.72;;;18.78;100.00
5996;BME280;3026;53.612;7.278;2023-05-09T11:47:23;101095.28;;;18.72;100.00
5996;BME280;3026;53.612;7.278;2023-05-09T11:49:50;101101.88;;;18.71;100.00
5996;BME280;3026;53.612;7.278;2023-05-09T11:52:18;101087.44;;;18.69;100.00
5996;BME280;3026;53.612;7.278;2023-05-09T11:54:45;101091.28;;;18.68;100.00
5996;BME280;3026;53.612;7.278;2023-05-09T11:57:12;101084.06;;;18.67;100.00
5996;BME280;3026;53.612;7.278;2023-05-09T11:59:43;101087.91;;;18.65;100.00
5996;BME280;3026;53.612;7.278;2023-05-09T12:02:10;101080.22;;;18.68;100.00
5996;BME280;3026;53.612;7.278;2023-05-09T12:04:38;101079.78;;;18.71;100.00
5996;BME280;3026;53.612;7.278;2023-05-09T12:07:05;101068.97;;;18.69;100.00
5996;BME280;3026;53.612;7.278;2023-05-09T12:09:33;101068.72;;;18.71;100.00
5996;BME280;3026;53.612;7.278;2023-05-09T12:12:07;101070.88;;;18.69;100.00
5996;BME280;3026;53.612;7.278;2023-05-09T12:14:36;101060.66;;;18.62;100.00
5996;BME280;3026;53.612;7.278;2023-05-09T12:17:05;101056.81;;;18.63;100.00
5996;BME280;3026;53.612;7.278;2023-05-09T12:19:32;101056.81;;;18.63;100.00
5996;BME280;3026;53.612;7.278;2023-05-09T12:22:00;101047.31;;;18.66;100.00
5996;BME280;3026;53.612;7.278;2023-05-09T12:24:28;101048.16;;;18.67;100.00
5996;BME280;3026;53.612;7.278;2023-05-09T12:26:56;101043.25;;;18.69;100.00
5996;BME280;3026;53.612;7.278;2023-05-09T12:29:23;101040.66;;;18.74;100.00
5996;BME280;3026;53.612;7.278;2023-05-09T12:31:51;101045.75;;;18.77;100.00
5996;BME280;3026;53.612;7.278;2023-05-09T12:34:20;101035.56;;;18.77;100.00
5996;BME280;3026;53.612;7.278;2023-05-09T12:36:47;101030.88;;;18.78;100.00
5996;BME280;3026;53.612;7.278;2023-05-09T12:39:16;101021.53;;;18.79;100.00
5996;BME280;3026;53.612;7.278;2023-05-09T12:41:46;101021.06;;;18.82;100.00
5996;BME280;3026;53.612;7.278;2023-05-09T12:44:18;101014.66;;;18.88;100.00
5996;BME280;3026;53.612;7.278;2023-05-09T12:46:54;101009.53;;;18.91;100.00
5996;BME280;3026;53.612;7.278;2023-05-09T12:49:22;101015.44;;;18.95;100.00
5996;BME280;3026;53.612;7.278;2023-05-09T12:51:50;101002.25;;;18.97;100.00
5996;BME280;3026;53.612;7.278;2023-05-09T12:54:21;101003.50;;;19.01;100.00
5996;BME280;3026;53.612;7.278;2023-05-09T12:56:49;101002.59;;;19.07;100.00
5996;BME280;3026;53.612;7.278;2023-05-09T12:59:21;100996.81;;;19.15;100.00
5996;BME280;3026;53.612;7.278;2023-05-09T13:01:52;100982.06;;;19.21;100.00
5996;BME280;3026;53.612;7.278;2023-05-09T13:04:22;100980.31;;;19.27;100.00
5996;BME280;3026;53.612;7.278;2023-05-09T13:06:50;100978.56;;;19.33;100.00
5996;BME280;3026;53.612;7.278;2023-05-09T13:09:17;100981.75;;;19.36;100.00
5996;BME280;3026;53.612;7.278;2023-05-09T13:11:44;100978.03;;;19.42;100.00
5996;BME280;3026;53.612;7.278;2023-05-09T13:14:12;100981.66;;;19.43;100.00